Time;durP1;ratioP1;P1;durP2;ratioP2;P2;SDS_P1;SDS_P2;PMS_P1;PMS_P2;Temp;Humidity;BMP_temperature;BMP_pressure;BME280_temperature;BME280_humidity;BME280_pressure;Samples;Min_cycle;Max_cycle;Signal;HPM_P1;HPM_P2
2022/11/15 00:00:53;;;;;;;28.20;16.42;;;7.80;99.90;;;;;;6272265;22;20011;-82
2022/11/15 00:03:25;;;;;;;25.10;16.10;;;7.70;99.90;;;;;;6270821;22;20014;-82
2022/11/15 00:05:50;;;;;;;26.88;16.27;;;7.60;99.90;;;;;;6245425;22;20034;-82
2022/11/15 00:08:16;;;;;;;25.45;15.95;;;7.60;99.90;;;;;;6219875;22;20089;-82
2022/11/15 00:10:42;;;;;;;25.98;17.15;;;7.50;99.90;;;;;;6245870;22;20020;-82
2022/11/15 00:13:11;;;;;;;25.80;15.23;;;7.40;99.90;;;;;;6273209;22;20012;-82
2022/11/15 00:15:38;;;;;;;26.70;17.13;;;7.30;99.90;;;;;;6272258;22;20012;-82
2022/11/15 00:18:04;;;;;;;30.00;17.40;;;7.30;99.90;;;;;;6273705;22;20020;-81
2022/11/15 00:20:30;;;;;;;26.25;17.13;;;7.20;99.90;;;;;;6246365;22;20015;-82
2022/11/15 00:22:56;;;;;;;29.95;17.55;;;7.20;99.90;;;;;;6273424;22;20375;-82
2022/11/15 00:25:21;;;;;;;25.40;17.23;;;7.30;99.90;;;;;;6246845;22;20021;-82
2022/11/15 00:27:47;;;;;;;30.48;19.02;;;7.20;99.90;;;;;;6273542;22;20012;-81
2022/11/15 00:30:13;;;;;;;24.63;17.25;;;7.20;99.90;;;;;;6219538;22;20344;-82
2022/11/15 00:32:38;;;;;;;27.35;16.60;;;7.30;99.90;;;;;;6220747;22;20022;-82
2022/11/15 00:35:04;;;;;;;27.23;18.40;;;7.30;99.90;;;;;;6273268;22;20035;-82
2022/11/15 00:37:30;;;;;;;25.45;16.52;;;7.20;99.90;;;;;;6245202;22;20085;-81
2022/11/15 00:39:56;;;;;;;31.00;17.58;;;7.20;99.90;;;;;;6273308;22;20428;-81
2022/11/15 00:42:21;;;;;;;27.08;17.63;;;7.20;99.90;;;;;;6246141;22;20087;-82
2022/11/15 00:44:47;;;;;;;27.65;18.02;;;7.20;99.90;;;;;;6273290;22;20018;-81
2022/11/15 00:47:13;;;;;;;24.83;16.50;;;7.20;99.90;;;;;;6272575;22;20103;-81
2022/11/15 00:49:38;;;;;;;25.90;16.60;;;7.30;99.90;;;;;;6244467;22;20019;-82
2022/11/15 00:52:04;;;;;;;26.88;16.45;;;7.30;99.90;;;;;;6272672;22;20019;-82
2022/11/15 00:54:29;;;;;;;27.30;17.20;;;7.30;99.90;;;;;;6245876;22;20317;-82
2022/11/15 00:56:55;;;;;;;27.63;17.10;;;7.40;99.90;;;;;;6272554;22;20016;-81
2022/11/15 00:59:20;;;;;;;24.42;16.25;;;7.40;99.90;;;;;;6245179;22;20020;-81
2022/11/15 01:01:46;;;;;;;27.17;16.33;;;7.40;99.90;;;;;;6244452;22;20504;-81
2022/11/15 01:04:12;;;;;;;27.23;16.05;;;7.40;99.90;;;;;;6272400;22;20093;-82
2022/11/15 01:06:37;;;;;;;24.80;15.73;;;7.40;99.90;;;;;;6272054;22;20542;-81
2022/11/15 01:09:03;;;;;;;28.08;17.27;;;7.40;99.90;;;;;;6245713;22;20083;-82
2022/11/15 01:11:29;;;;;;;27.77;16.92;;;7.80;99.90;;;;;;6220213;22;20015;-81
2022/11/15 01:13:54;;;;;;;28.40;17.15;;;7.50;99.90;;;;;;6273082;22;20095;-81
2022/11/15 01:16:20;;;;;;;28.05;17.48;;;7.50;99.90;;;;;;6245580;22;20078;-81
2022/11/15 01:18:46;;;;;;;30.67;18.58;;;7.50;99.90;;;;;;6273255;22;20508;-82
2022/11/15 01:21:15;;;;;;;28.33;17.15;;;7.50;99.90;;;;;;6272108;22;20015;-82
2022/11/15 01:23:41;;;;;;;30.10;19.23;;;7.60;99.90;;;;;;6272601;22;20007;-81
2022/11/15 01:26:09;;;;;;;31.40;19.30;;;7.60;99.90;;;;;;6271895;22;20015;-81
2022/11/15 01:28:37;;;;;;;31.90;19.13;;;7.60;99.90;;;;;;6272401;22;20016;-81
2022/11/15 01:31:05;;;;;;;28.23;16.92;;;7.60;99.90;;;;;;6244364;22;20019;-81
2022/11/15 01:33:36;;;;;;;31.35;17.75;;;7.60;99.90;;;;;;6271184;22;20018;-81
2022/11/15 01:36:07;;;;;;;27.40;16.63;;;7.60;99.90;;;;;;6271524;22;20057;-82
2022/11/15 01:38:33;;;;;;;27.13;16.75;;;7.70;99.90;;;;;;6243525;22;20403;-81
2022/11/15 01:40:58;;;;;;;28.83;16.42;;;7.70;99.90;;;;;;6245818;22;20159;-81
2022/11/15 01:43:28;;;;;;;31.88;16.73;;;7.70;99.90;;;;;;6272499;22;20011;-81
2022/11/15 01:46:02;;;;;;;28.08;16.05;;;7.70;99.90;;;;;;6245554;22;20011;-82
2022/11/15 01:48:33;;;;;;;26.23;15.65;;;7.70;99.90;;;;;;6245055;22;20015;-81
2022/11/15 01:51:06;;;;;;;27.25;16.35;;;7.70;99.90;;;;;;6244123;22;20019;-81
2022/11/15 01:53:33;;;;;;;28.85;17.27;;;7.70;99.90;;;;;;6244189;22;20007;-81
2022/11/15 01:56:03;;;;;;;28.83;16.85;;;7.70;99.90;;;;;;6271209;22;20019;-82
2022/11/15 01:58:29;;;;;;;27.70;16.90;;;7.70;99.90;;;;;;6272153;22;20317;-82
2022/11/15 02:00:55;;;;;;;28.80;15.82;;;7.70;99.90;;;;;;6245328;22;20015;-81
2022/11/15 02:03:26;;;;;;;26.67;16.33;;;7.70;99.90;;;;;;6244348;22;20008;-81
2022/11/15 02:05:52;;;;;;;32.60;17.08;;;7.70;99.90;;;;;;6244950;22;20475;-82
2022/11/15 02:08:21;;;;;;;31.42;16.45;;;7.70;99.90;;;;;;6245272;22;20029;-81
2022/11/15 02:10:47;;;;;;;29.73;16.75;;;7.70;99.90;;;;;;6219055;22;20090;-82
2022/11/15 02:13:17;;;;;;;29.75;16.55;;;7.70;99.90;;;;;;6270538;22;20459;-82
2022/11/15 02:16:13;;;;;;;31.30;16.13;;;7.70;99.90;;;;;;6272215;22;20008;-81
2022/11/15 02:18:47;;;;;;;31.13;16.90;;;7.70;99.90;;;;;;6244195;22;20027;-81
2022/11/15 02:21:15;;;;;;;34.08;17.15;;;7.70;99.90;;;;;;6271935;22;20538;-80
2022/11/15 02:24:02;;;;;;;31.45;17.15;;;7.70;99.90;;;;;;6271594;22;20012;-81
2022/11/15 02:26:47;;;;;;;28.50;16.60;;;7.70;99.90;;;;;;6245096;22;20016;-81
2022/11/15 02:29:24;;;;;;;29.10;15.80;;;7.70;99.90;;;;;;6272005;22;20024;-82
2022/11/15 02:32:23;;;;;;;29.17;16.90;;;7.70;99.90;;;;;;6272142;22;20012;-81
2022/11/15 02:35:08;;;;;;;29.60;16.48;;;7.70;99.90;;;;;;6258603;22;20395;-82
2022/11/15 02:37:52;;;;;;;30.13;16.98;;;7.70;99.90;;;;;;6271883;22;20022;-82
2022/11/15 02:40:30;;;;;;;32.97;17.63;;;7.70;99.90;;;;;;6219670;22;20032;-81
2022/11/15 02:46:18;;;;;;;31.58;16.95;;;7.80;99.90;;;;;;6199196;22;20024;-81
2022/11/15 02:48:44;;;;;;;30.75;16.55;;;7.70;99.90;;;;;;6269800;22;20448;-82
2022/11/15 02:51:11;;;;;;;28.98;15.73;;;7.80;99.90;;;;;;6244170;22;20050;-81
2022/11/15 02:53:37;;;;;;;33.08;17.10;;;7.80;99.90;;;;;;6272637;22;20019;-80
2022/11/15 02:56:03;;;;;;;31.15;16.35;;;7.80;99.90;;;;;;6244652;22;20023;-81
2022/11/15 02:58:41;;;;;;;33.78;18.48;;;7.80;99.90;;;;;;6244537;22;20023;-81
2022/11/15 03:01:22;;;;;;;30.60;17.15;;;7.80;99.90;;;;;;6243622;22;20022;-81
2022/11/15 03:04:12;;;;;;;29.98;16.10;;;7.80;99.90;;;;;;6272106;22;20012;-81
2022/11/15 03:07:09;;;;;;;28.77;16.58;;;7.80;99.90;;;;;;6219509;22;20051;-82
2022/11/15 03:09:47;;;;;;;27.38;15.63;;;7.80;99.90;;;;;;6270561;22;20022;-81
2022/11/15 03:12:27;;;;;;;29.48;16.27;;;7.90;99.90;;;;;;6244579;22;20016;-81
2022/11/15 03:15:05;;;;;;;32.53;16.20;;;7.90;99.90;;;;;;6244271;22;20015;-82
2022/11/15 03:17:38;;;;;;;29.70;16.30;;;7.90;99.90;;;;;;6219707;22;20066;-82
2022/11/15 03:20:07;;;;;;;31.57;16.80;;;7.90;99.90;;;;;;6273242;22;20352;-81
2022/11/15 03:22:39;;;;;;;30.10;16.58;;;7.90;99.90;;;;;;6245584;22;20020;-81
2022/11/15 03:25:08;;;;;;;31.40;16.88;;;7.90;99.90;;;;;;6246304;22;20382;-82
2022/11/15 03:27:39;;;;;;;35.40;17.88;;;7.90;99.90;;;;;;6273932;22;20090;-81
2022/11/15 03:30:07;;;;;;;34.08;18.52;;;7.90;99.90;;;;;;6246691;22;20106;-81
2022/11/15 03:32:42;;;;;;;32.08;17.30;;;8.00;99.90;;;;;;6245604;22;20058;-81
2022/11/15 03:35:12;;;;;;;34.70;18.27;;;8.00;99.90;;;;;;6246016;22;20098;-82
2022/11/15 03:38:13;;;;;;;35.30;18.33;;;8.00;99.90;;;;;;6246878;22;20515;-81
2022/11/15 03:40:48;;;;;;;39.20;19.70;;;8.00;99.90;;;;;;6245966;22;20403;-81
2022/11/15 03:43:29;;;;;;;;;;;8.00;99.90;;;;;;6274110;22;20436;-82
2022/11/15 03:46:01;;;;;;;38.85;18.65;;;8.00;99.90;;;;;;6245752;22;20378;-82
2022/11/15 03:48:35;;;;;;;40.30;18.25;;;8.00;99.90;;;;;;6245580;22;20023;-82
2022/11/15 03:51:02;;;;;;;45.28;18.85;;;8.00;99.90;;;;;;6246212;22;20023;-81
2022/11/15 03:53:30;;;;;;;43.20;19.08;;;8.10;99.90;;;;;;6273146;22;20022;-81
2022/11/15 03:55:56;;;;;;;41.65;20.23;;;8.10;99.90;;;;;;6273695;22;20020;-82
2022/11/15 03:58:21;;;;;;;40.03;19.48;;;8.10;99.90;;;;;;6245614;22;20023;-82
2022/11/15 04:00:47;;;;;;;41.20;19.73;;;8.10;99.90;;;;;;6244641;22;20015;-81
2022/11/15 04:03:13;;;;;;;48.88;20.33;;;8.20;99.90;;;;;;6246665;22;20019;-82
2022/11/15 04:05:38;;;;;;;41.50;19.85;;;8.10;99.90;;;;;;6273445;22;20016;-82
2022/11/15 04:08:04;;;;;;;43.38;20.52;;;8.10;99.90;;;;;;6273485;22;20008;-82
2022/11/15 04:10:29;;;;;;;47.03;22.67;;;8.10;99.90;;;;;;6246065;22;20034;-82
2022/11/15 04:12:55;;;;;;;44.55;21.63;;;8.10;99.90;;;;;;6245861;22;20100;-82
2022/11/15 04:15:22;;;;;;;41.67;20.80;;;8.10;99.90;;;;;;6273043;22;20014;-82
2022/11/15 04:17:56;;;;;;;48.78;21.95;;;8.10;99.90;;;;;;6273149;22;20093;-82
2022/11/15 04:26:03;;;;;;;44.88;22.20;;;8.20;99.90;;;;;;6272714;22;20016;-82
2022/11/15 04:28:30;;;;;;;50.20;21.83;;;8.20;99.90;;;;;;6245052;22;20054;-83
2022/11/15 04:30:56;;;;;;;50.22;22.52;;;8.20;99.90;;;;;;6245921;22;20408;-82
2022/11/15 04:33:22;;;;;;;53.22;22.80;;;8.20;99.90;;;;;;6245331;22;20285;-82
2022/11/15 04:37:11;;;;;;;51.80;23.55;;;8.20;99.90;;;;;;6273246;22;20107;-82
2022/11/15 04:38:35;;;;;;;48.33;23.98;;;8.20;99.90;;;;;;6245315;22;20023;-82
2022/11/15 04:41:01;;;;;;;44.60;22.52;;;8.20;99.90;;;;;;6245572;22;20042;-82
2022/11/15 04:43:27;;;;;;;46.80;22.88;;;8.30;99.90;;;;;;6243978;22;20008;-82
2022/11/15 04:45:52;;;;;;;55.15;26.17;;;8.30;99.90;;;;;;6245836;22;20011;-82
2022/11/15 04:48:18;;;;;;;52.35;24.75;;;8.30;99.90;;;;;;6245523;22;20091;-82
2022/11/15 04:50:44;;;;;;;52.05;26.65;;;8.40;99.90;;;;;;6245072;22;20057;-82
2022/11/15 04:53:09;;;;;;;47.28;25.67;;;8.40;99.90;;;;;;6244358;22;20198;-82
2022/11/15 04:55:35;;;;;;;53.30;27.05;;;8.40;99.90;;;;;;6239792;23;20554;-82
2022/11/15 04:58:01;;;;;;;52.88;26.80;;;8.40;99.90;;;;;;6214351;23;20446;-82
2022/11/15 05:00:28;;;;;;;53.95;26.30;;;8.40;99.90;;;;;;6240222;23;20471;-81
2022/11/15 05:05:39;;;;;;;62.78;27.65;;;8.70;99.90;;;;;;6242286;23;20024;-82
2022/11/15 05:08:05;;;;;;;57.38;27.17;;;8.50;99.90;;;;;;6242281;23;20009;-82
2022/11/15 05:10:31;;;;;;;63.95;30.00;;;8.50;99.90;;;;;;6242525;23;20019;-82
2022/11/15 05:12:56;;;;;;;65.32;29.48;;;8.50;99.90;;;;;;6241248;23;20336;-83
2022/11/15 05:15:22;;;;;;;63.75;30.17;;;8.60;99.90;;;;;;6242311;23;20076;-82
2022/11/15 05:17:47;;;;;;;66.53;30.85;;;8.60;99.90;;;;;;6213899;23;20118;-82
2022/11/15 05:20:13;;;;;;;62.70;29.38;;;8.60;99.90;;;;;;6242196;23;20336;-83
2022/11/15 05:22:39;;;;;;;74.78;30.80;;;8.60;99.90;;;;;;6241587;23;20016;-82
2022/11/15 05:25:06;;;;;;;84.38;32.80;;;8.70;99.90;;;;;;6238714;23;20448;-83
2022/11/15 05:27:33;;;;;;;79.20;32.60;;;8.70;99.90;;;;;;6238473;23;20337;-82
2022/11/15 05:29:59;;;;;;;79.15;31.77;;;8.70;99.90;;;;;;6240276;23;20024;-82
2022/11/15 05:32:25;;;;;;;72.25;32.15;;;8.80;99.90;;;;;;6241778;23;20035;-82
2022/11/15 05:34:51;;;;;;;79.13;34.53;;;9.30;99.90;;;;;;6240673;23;20019;-83
2022/11/15 05:37:17;;;;;;;69.30;31.52;;;8.90;99.90;;;;;;6241138;23;20563;-82
2022/11/15 05:39:43;;;;;;;75.85;32.58;;;8.80;99.90;;;;;;6239953;23;20023;-82
2022/11/15 05:42:13;;;;;;;72.85;34.72;;;8.90;99.90;;;;;;6237582;22;20016;-82
2022/11/15 05:44:43;;;;;;;81.05;33.63;;;8.90;99.90;;;;;;6213507;23;20433;-82
2022/11/15 05:47:12;;;;;;;79.18;33.33;;;8.90;99.90;;;;;;6239238;22;20456;-82
2022/11/15 05:49:40;;;;;;;81.05;35.72;;;9.00;99.90;;;;;;6238366;23;20052;-84
2022/11/15 05:52:10;;;;;;;91.43;35.75;;;9.00;99.90;;;;;;6242175;23;20018;-84
2022/11/15 05:54:37;;;;;;;76.03;36.45;;;9.00;99.90;;;;;;6251297;22;20440;-82
2022/11/15 05:57:04;;;;;;;78.30;34.95;;;9.10;99.90;;;;;;6272173;22;20020;-83
2022/11/15 05:59:31;;;;;;;77.18;35.78;;;9.10;99.90;;;;;;6218851;22;20726;-82
2022/11/15 06:01:57;;;;;;;80.07;37.75;;;9.10;99.90;;;;;;6218500;22;20628;-83
2022/11/15 06:04:22;;;;;;;78.22;36.60;;;9.20;99.90;;;;;;6245284;22;20027;-82
2022/11/15 06:06:48;;;;;;;70.05;32.42;;;9.20;99.90;;;;;;6272382;22;20220;-81
2022/11/15 06:09:14;;;;;;;69.22;34.75;;;9.20;99.90;;;;;;6220248;22;20050;-81
2022/11/15 06:11:39;;;;;;;70.13;36.10;;;9.30;99.90;;;;;;6271300;22;20313;-82
2022/11/15 06:14:05;;;;;;;75.00;38.40;;;9.30;99.90;;;;;;6219201;22;20023;-82
2022/11/15 06:16:31;;;;;;;67.35;33.03;;;9.30;99.90;;;;;;6218541;22;20019;-81
2022/11/15 06:18:56;;;;;;;63.10;31.60;;;9.30;99.90;;;;;;6272161;22;20069;-81
2022/11/15 06:21:22;;;;;;;71.70;32.30;;;9.40;99.90;;;;;;6271481;22;20027;-82
2022/11/15 06:23:48;;;;;;;68.00;33.95;;;9.40;99.90;;;;;;6272525;22;20034;-81
2022/11/15 06:26:14;;;;;;;68.20;32.78;;;9.50;99.90;;;;;;6218728;22;20433;-82
2022/11/15 06:28:40;;;;;;;68.15;33.72;;;9.50;99.90;;;;;;6219409;22;20088;-82
2022/11/15 06:31:08;;;;;;;66.53;31.80;;;9.50;99.90;;;;;;6219913;22;20015;-82
2022/11/15 06:33:34;;;;;;;71.72;36.63;;;9.60;99.90;;;;;;6244900;22;20019;-82
2022/11/15 06:36:02;;;;;;;74.57;32.42;;;9.60;99.90;;;;;;6245390;22;20011;-83
2022/11/15 06:38:27;;;;;;;67.38;31.45;;;9.70;99.90;;;;;;6249047;22;20019;-85
2022/11/15 06:40:53;;;;;;;69.97;34.25;;;9.70;99.90;;;;;;6222330;22;20486;-85
2022/11/15 06:43:19;;;;;;;74.97;33.97;;;9.70;99.90;;;;;;6247917;22;20452;-83
2022/11/15 06:45:44;;;;;;;68.53;33.22;;;9.70;99.90;;;;;;6247425;22;20073;-82
2022/11/15 06:48:10;;;;;;;67.28;32.60;;;9.70;99.90;;;;;;6272981;22;20004;-82
2022/11/15 06:50:36;;;;;;;71.65;33.28;;;9.80;99.90;;;;;;6273857;22;20027;-83
2022/11/15 06:53:03;;;;;;;69.60;32.70;;;9.80;99.90;;;;;;6248562;22;20087;-83
2022/11/15 06:55:29;;;;;;;68.50;32.15;;;9.80;99.90;;;;;;6248468;22;20027;-83
2022/11/15 06:57:55;;;;;;;61.28;31.45;;;9.80;99.90;;;;;;6275704;22;20016;-83
2022/11/15 07:00:21;;;;;;;67.38;31.13;;;9.80;99.90;;;;;;6247543;22;20087;-83
2022/11/15 07:02:48;;;;;;;70.90;32.63;;;9.80;99.90;;;;;;6222210;22;20012;-82
2022/11/15 07:05:14;;;;;;;64.65;33.72;;;9.90;99.90;;;;;;6275328;22;20012;-83
2022/11/15 07:07:40;;;;;;;60.20;32.25;;;9.90;99.90;;;;;;6248017;22;20086;-82
2022/11/15 07:10:07;;;;;;;66.40;34.17;;;9.90;99.90;;;;;;6247555;22;20074;-84
2022/11/15 07:12:32;;;;;;;56.30;31.08;;;10.00;99.90;;;;;;6249720;22;20020;-83
2022/11/15 07:14:58;;;;;;;65.80;30.63;;;10.00;99.90;;;;;;6272204;22;20011;-83
2022/11/15 07:17:24;;;;;;;62.83;29.80;;;10.00;99.90;;;;;;6273290;22;20071;-83
2022/11/15 07:19:49;;;;;;;60.53;30.60;;;10.00;99.90;;;;;;6272603;22;20070;-83
2022/11/15 07:22:15;;;;;;;55.85;28.35;;;10.00;99.90;;;;;;6272567;22;20011;-83
2022/11/15 07:24:40;;;;;;;59.55;29.63;;;10.00;99.90;;;;;;6272457;22;20585;-82
2022/11/15 07:27:06;;;;;;;54.30;28.88;;;10.00;99.90;;;;;;6272056;22;20447;-84
2022/11/15 07:29:31;;;;;;;50.33;26.45;;;10.10;99.90;;;;;;6240865;22;20019;-83
2022/11/15 07:31:57;;;;;;;53.75;26.95;;;10.40;99.90;;;;;;6271951;22;20034;-83
2022/11/15 07:34:23;;;;;;;54.10;28.02;;;10.10;99.90;;;;;;6271732;22;20022;-83
2022/11/15 07:36:49;;;;;;;54.63;28.85;;;10.20;99.90;;;;;;6272809;22;20551;-83
2022/11/15 07:39:14;;;;;;;55.60;32.00;;;10.60;99.90;;;;;;6272480;22;20043;-83
2022/11/15 07:41:40;;;;;;;53.53;27.98;;;10.20;99.90;;;;;;6273185;22;20065;-83
2022/11/15 07:44:06;;;;;;;51.03;27.77;;;10.20;99.90;;;;;;6272964;22;20019;-83
2022/11/15 07:46:32;;;;;;;60.88;29.60;;;10.20;99.90;;;;;;6272867;22;20012;-83
2022/11/15 07:48:57;;;;;;;52.70;27.98;;;10.30;99.90;;;;;;6273780;22;20026;-83
2022/11/15 07:51:23;;;;;;;57.30;26.75;;;10.30;99.90;;;;;;6271791;22;20023;-83
2022/11/15 07:53:48;;;;;;;54.83;27.42;;;10.30;99.90;;;;;;6272954;22;20019;-83
2022/11/15 07:56:14;;;;;;;57.63;26.90;;;10.30;99.90;;;;;;6273342;22;20055;-83
2022/11/15 07:58:40;;;;;;;46.38;25.58;;;10.40;99.90;;;;;;6273764;22;20091;-83
2022/11/15 08:01:08;;;;;;;47.25;26.52;;;10.40;99.90;;;;;;6273317;22;20039;-83
2022/11/15 08:03:34;;;;;;;48.40;27.75;;;10.40;99.90;;;;;;6273540;22;20015;-84
2022/11/15 08:05:59;;;;;;;49.65;29.15;;;10.40;99.90;;;;;;6273459;22;20015;-83
2022/11/15 08:08:25;;;;;;;45.05;25.38;;;10.40;99.90;;;;;;6272389;22;20012;-84
2022/11/15 08:10:50;;;;;;;38.42;22.95;;;10.40;99.90;;;;;;6271543;22;20468;-83
2022/11/15 08:13:16;;;;;;;40.00;21.88;;;10.50;99.90;;;;;;6270904;22;20030;-83
2022/11/15 08:15:43;;;;;;;41.67;22.23;;;10.50;99.90;;;;;;6243712;22;20016;-83
2022/11/15 08:18:14;;;;;;;46.25;24.40;;;10.50;99.90;;;;;;6271314;22;20019;-82
2022/11/15 08:20:40;;;;;;;38.55;23.95;;;10.60;99.90;;;;;;6243644;22;20069;-83
2022/11/15 08:23:07;;;;;;;41.65;23.60;;;10.60;99.90;;;;;;6271484;22;20004;-83
2022/11/15 08:25:34;;;;;;;38.22;23.42;;;10.60;99.90;;;;;;6273397;22;20332;-83
2022/11/15 08:28:02;;;;;;;41.30;23.35;;;10.70;99.90;;;;;;6272475;22;20004;-82
2022/11/15 08:30:29;;;;;;;39.85;21.67;;;10.70;99.90;;;;;;6272721;22;20562;-83
2022/11/15 08:32:57;;;;;;;36.83;20.30;;;10.80;99.90;;;;;;6272980;22;20014;-83
2022/11/15 08:35:23;;;;;;;39.20;25.20;;;10.80;99.90;;;;;;6244947;22;20023;-82
2022/11/15 08:37:49;;;;;;;34.95;22.05;;;10.80;99.90;;;;;;6272726;22;20039;-83
2022/11/15 08:40:15;;;;;;;34.53;20.98;;;10.80;99.90;;;;;;6245892;22;20383;-83
2022/11/15 08:42:41;;;;;;;36.55;22.23;;;10.90;99.90;;;;;;6245501;22;20011;-82
2022/11/15 08:45:07;;;;;;;33.88;20.08;;;10.90;99.90;;;;;;6272826;22;20069;-83
2022/11/15 08:47:33;;;;;;;33.83;21.35;;;11.00;99.90;;;;;;6245662;22;20012;-83
2022/11/15 08:49:59;;;;;;;33.97;21.65;;;11.00;99.90;;;;;;6272186;22;20062;-83
2022/11/15 08:52:25;;;;;;;33.42;21.73;;;11.10;99.90;;;;;;6272693;22;20012;-83
2022/11/15 08:54:50;;;;;;;39.67;25.70;;;11.10;99.90;;;;;;6240744;23;20027;-83
2022/11/15 08:57:16;;;;;;;33.72;22.80;;;11.20;99.90;;;;;;6242597;23;20068;-83
2022/11/15 08:59:42;;;;;;;36.60;20.63;;;11.20;99.90;;;;;;6240319;23;20374;-82
2022/11/15 09:02:14;;;;;;;34.40;20.63;;;11.30;99.90;;;;;;6240563;23;20020;-82
2022/11/15 09:04:43;;;;;;;30.08;19.45;;;11.30;99.90;;;;;;6241206;22;20446;-83
2022/11/15 09:07:10;;;;;;;34.25;19.83;;;11.30;99.90;;;;;;6241847;22;20470;-83
2022/11/15 09:09:36;;;;;;;32.78;20.25;;;11.40;99.90;;;;;;6242491;22;20016;-83
2022/11/15 09:12:03;;;;;;;28.13;18.75;;;11.30;99.90;;;;;;6242210;22;20016;-83
2022/11/15 09:14:28;;;;;;;30.70;19.95;;;11.30;99.90;;;;;;6239795;23;20012;-83
2022/11/15 09:16:54;;;;;;;38.13;21.30;;;11.30;99.90;;;;;;6241975;23;20407;-83
2022/11/15 09:19:19;;;;;;;32.17;20.23;;;11.30;99.90;;;;;;6241523;23;20012;-83
2022/11/15 09:21:45;;;;;;;30.55;18.58;;;11.50;99.90;;;;;;6241987;23;20066;-83
2022/11/15 09:24:10;;;;;;;32.08;19.48;;;11.30;99.90;;;;;;6242025;23;20044;-83
2022/11/15 09:26:36;;;;;;;34.22;19.55;;;11.30;99.90;;;;;;6242079;23;20023;-82
2022/11/15 09:29:02;;;;;;;31.17;19.70;;;11.40;99.90;;;;;;6242005;23;20016;-83
2022/11/15 09:31:29;;;;;;;28.50;19.13;;;11.40;99.90;;;;;;6240214;23;20138;-83
2022/11/15 09:33:55;;;;;;;33.45;18.60;;;11.40;99.90;;;;;;6238964;23;20356;-83
2022/11/15 09:36:20;;;;;;;33.25;18.65;;;11.50;99.90;;;;;;6242100;22;20058;-83
2022/11/15 09:38:46;;;;;;;32.30;19.42;;;11.50;99.90;;;;;;6239839;23;20016;-83
2022/11/15 09:41:12;;;;;;;31.13;18.35;;;11.60;99.90;;;;;;6240161;23;20314;-83
2022/11/15 09:44:02;;;;;;;30.10;19.02;;;11.60;99.90;;;;;;6241787;23;20019;-83
2022/11/15 09:47:15;;;;;;;28.20;18.63;;;11.60;99.90;;;;;;6241851;23;20020;-82
2022/11/15 09:49:41;;;;;;;30.10;17.65;;;11.70;99.90;;;;;;6241659;22;20084;-83
2022/11/15 09:52:08;;;;;;;29.77;17.77;;;11.70;99.90;;;;;;6241696;22;20430;-83
2022/11/15 09:54:35;;;;;;;29.60;17.73;;;11.80;99.90;;;;;;6239848;23;20012;-83
2022/11/15 09:57:09;;;;;;;30.80;18.20;;;11.70;99.90;;;;;;6240043;23;20012;-83
2022/11/15 09:59:40;;;;;;;26.23;16.75;;;11.80;99.90;;;;;;6241379;23;20016;-83
2022/11/15 10:02:36;;;;;;;28.13;16.88;;;11.80;99.90;;;;;;6241201;23;20016;-84
2022/11/15 10:05:02;;;;;;;25.65;16.67;;;11.80;99.90;;;;;;6241613;23;20012;-83
2022/11/15 10:07:40;;;;;;;25.63;16.48;;;11.80;99.90;;;;;;6241364;22;20341;-83
2022/11/15 10:10:36;;;;;;;22.25;15.43;;;11.80;99.90;;;;;;6241725;22;20460;-83
2022/11/15 10:13:03;;;;;;;23.50;15.80;;;11.80;99.90;;;;;;6242435;22;20087;-83
2022/11/15 10:15:29;;;;;;;25.20;15.23;;;11.80;99.90;;;;;;6241672;22;20016;-83
2022/11/15 10:18:15;;;;;;;25.90;15.70;;;11.80;99.90;;;;;;6241062;22;20452;-83
2022/11/15 10:20:57;;;;;;;24.98;15.25;;;11.80;99.90;;;;;;6239633;23;20020;-83
2022/11/15 10:23:23;;;;;;;23.08;14.50;;;11.80;99.90;;;;;;6240086;23;20333;-83
2022/11/15 10:25:54;;;;;;;24.65;15.60;;;11.80;99.90;;;;;;6241500;22;20035;-83
2022/11/15 10:28:28;;;;;;;21.48;14.20;;;11.80;99.90;;;;;;6241490;22;20015;-83
2022/11/15 10:30:56;;;;;;;21.92;14.82;;;11.70;99.90;;;;;;6240776;22;20098;-83
2022/11/15 10:33:35;;;;;;;24.25;14.00;;;11.70;99.90;;;;;;6241213;22;20039;-83
2022/11/15 10:36:13;;;;;;;23.13;13.60;;;11.70;99.90;;;;;;6241266;22;20012;-83
2022/11/15 10:38:48;;;;;;;22.15;14.68;;;11.80;99.90;;;;;;6241473;23;20019;-83
2022/11/15 10:41:14;;;;;;;21.98;14.23;;;11.70;99.90;;;;;;6241845;23;20097;-83
2022/11/15 10:43:40;;;;;;;19.92;13.57;;;11.70;99.90;;;;;;6239623;23;20054;-83
2022/11/15 10:46:21;;;;;;;22.10;13.90;;;11.70;99.90;;;;;;6238641;23;20008;-82
2022/11/15 10:48:46;;;;;;;23.38;15.20;;;11.70;99.90;;;;;;6239292;23;20070;-83
2022/11/15 10:51:28;;;;;;;27.00;15.05;;;11.70;99.90;;;;;;6241485;23;20383;-83
2022/11/15 10:53:56;;;;;;;25.83;15.20;;;11.70;99.90;;;;;;6241415;22;20479;-83
2022/11/15 10:56:24;;;;;;;26.90;15.18;;;11.60;99.90;;;;;;6239297;23;20024;-83
2022/11/15 10:58:57;;;;;;;25.15;14.73;;;11.70;99.90;;;;;;6241360;22;20009;-83
2022/11/15 11:01:25;;;;;;;23.38;15.40;;;11.80;99.90;;;;;;6241206;22;20383;-83
2022/11/15 11:04:11;;;;;;;26.95;16.23;;;11.80;99.90;;;;;;6214244;23;20020;-83
2022/11/15 11:06:57;;;;;;;21.42;15.07;;;11.90;99.90;;;;;;6238989;23;20012;-83
2022/11/15 11:09:35;;;;;;;20.92;14.73;;;11.90;99.90;;;;;;6239834;23;20405;-83
2022/11/15 11:12:03;;;;;;;22.27;15.70;;;11.90;99.90;;;;;;6239542;23;20012;-83
2022/11/15 11:14:36;;;;;;;19.90;14.10;;;11.90;99.90;;;;;;6238520;23;20095;-83
2022/11/15 11:17:55;;;;;;;22.58;14.35;;;12.00;99.90;;;;;;6241477;22;20363;-83
2022/11/15 11:20:41;;;;;;;20.75;13.68;;;11.90;99.90;;;;;;6094008;23;20057;-83
2022/11/15 11:23:25;;;;;;;21.75;14.10;;;11.90;99.90;;;;;;6094296;23;20022;-83
2022/11/15 11:26:29;;;;;;;19.52;13.48;;;11.90;99.90;;;;;;6118923;23;20014;-83
2022/11/15 11:29:19;;;;;;;21.88;13.68;;;12.00;99.90;;;;;;6093634;23;20068;-83
2022/11/15 11:32:24;;;;;;;19.10;12.45;;;12.10;99.90;;;;;;6118614;23;20082;-83
2022/11/15 11:35:14;;;;;;;19.67;13.13;;;12.20;99.90;;;;;;6118263;23;20018;-83
2022/11/15 11:37:49;;;;;;;18.88;12.27;;;12.30;99.90;;;;;;6094402;23;20022;-83
2022/11/15 11:40:30;;;;;;;17.52;12.30;;;12.40;99.90;;;;;;6120385;23;20018;-83
2022/11/15 11:43:10;;;;;;;15.48;10.52;;;12.40;99.90;;;;;;6120248;23;20021;-83
2022/11/15 11:45:36;;;;;;;15.82;9.10;;;12.40;99.90;;;;;;6120315;23;20065;-82
2022/11/15 11:48:14;;;;;;;14.63;9.68;;;12.50;99.90;;;;;;6095911;23;20402;-83
2022/11/15 11:50:44;;;;;;;13.18;9.98;;;12.50;99.90;;;;;;6119996;23;20022;-83
2022/11/15 11:53:25;;;;;;;12.93;10.00;;;12.50;99.90;;;;;;6119847;23;20455;-83
2022/11/15 11:55:54;;;;;;;12.95;8.95;;;12.50;99.90;;;;;;6266391;22;20375;-83
2022/11/15 11:58:30;;;;;;;13.40;9.20;;;12.40;99.90;;;;;;6271620;22;20012;-83
2022/11/15 12:01:12;;;;;;;12.30;8.98;;;12.50;99.90;;;;;;6273014;22;20428;-81
2022/11/15 12:03:43;;;;;;;12.30;7.50;;;12.50;99.90;;;;;;6246443;22;20109;-80
2022/11/15 12:06:31;;;;;;;10.85;6.80;;;12.50;99.90;;;;;;6273557;22;20012;-80
2022/11/15 12:09:15;;;;;;;11.73;6.85;;;12.50;99.90;;;;;;6246052;22;20027;-80
2022/11/15 12:11:56;;;;;;;11.48;7.10;;;12.40;99.90;;;;;;6272882;22;20022;-80
2022/11/15 12:14:42;;;;;;;12.52;6.95;;;12.30;99.90;;;;;;6245195;22;20016;-81
2022/11/15 12:17:11;;;;;;;10.90;6.82;;;12.20;99.90;;;;;;6273106;22;20016;-80
2022/11/15 12:19:38;;;;;;;11.05;6.68;;;12.20;99.90;;;;;;6273308;22;20349;-80
2022/11/15 12:22:29;;;;;;;10.52;5.85;;;12.30;99.90;;;;;;6273515;22;20007;-80
2022/11/15 12:25:07;;;;;;;9.32;5.68;;;12.30;99.90;;;;;;6245999;22;20023;-80
2022/11/15 12:27:37;;;;;;;9.48;5.50;;;12.30;99.90;;;;;;6245342;22;20019;-80
2022/11/15 12:30:12;;;;;;;9.52;5.72;;;12.30;99.90;;;;;;6244541;22;20023;-81
2022/11/15 12:32:47;;;;;;;9.57;5.28;;;12.30;99.90;;;;;;6244904;22;20077;-80
2022/11/15 12:35:28;;;;;;;9.20;4.93;;;12.20;99.90;;;;;;6245354;22;20043;-81
2022/11/15 12:37:55;;;;;;;8.23;4.75;;;12.10;99.90;;;;;;6245741;22;20061;-80
2022/11/15 12:40:35;;;;;;;7.97;4.82;;;12.10;99.90;;;;;;6245351;22;20090;-81
2022/11/15 12:43:04;;;;;;;11.85;5.75;;;12.00;99.90;;;;;;6244078;22;20019;-82
2022/11/15 12:45:38;;;;;;;8.88;5.15;;;12.00;99.90;;;;;;6273066;22;20387;-82
2022/11/15 12:48:16;;;;;;;9.13;4.95;;;11.90;99.90;;;;;;6272976;22;20007;-82
2022/11/15 12:50:50;;;;;;;12.80;5.78;;;11.90;99.90;;;;;;6220835;22;20019;-82
2022/11/15 12:53:27;;;;;;;9.13;4.55;;;11.90;99.90;;;;;;6273377;22;20444;-83
2022/11/15 12:56:08;;;;;;;9.88;4.95;;;11.90;99.90;;;;;;6273124;22;20080;-82
2022/11/15 12:58:49;;;;;;;8.65;4.50;;;11.90;99.90;;;;;;6273127;22;20023;-82
2022/11/15 13:01:33;;;;;;;10.00;5.00;;;12.00;99.90;;;;;;6273429;22;20082;-82